createdAt,value
2023-09-08T00:04:40.782Z,73.32
2023-09-08T00:09:42.793Z,73.16
2023-09-08T00:14:44.866Z,72.96
2023-09-08T00:19:47.018Z,73.09
2023-09-08T00:24:49.149Z,73.23
2023-09-08T00:29:51.218Z,72.68
2023-09-08T00:34:53.182Z,72.93
2023-09-08T00:39:55.152Z,73.29
2023-09-08T00:44:57.126Z,73.72
2023-09-08T00:49:59.155Z,73.16
2023-09-08T00:55:01.294Z,73.04
2023-09-08T01:00:03.612Z,73.13
2023-09-08T01:05:07.486Z,73.54
2023-09-08T01:10:09.752Z,73.42
2023-09-08T01:15:11.908Z,74.17
2023-09-08T01:20:22.086Z,74.37
2023-09-08T01:25:28.174Z,74.86
2023-09-08T01:30:30.514Z,75.71
2023-09-08T01:35:32.584Z,77.13
2023-09-08T01:40:34.592Z,78.67
2023-09-08T01:45:36.641Z,79.92
2023-09-08T01:50:38.713Z,80.44
2023-09-08T01:55:40.708Z,82.79
2023-09-08T02:00:42.752Z,83.70
2023-09-08T02:05:45.886Z,84.54
2023-09-08T02:10:48.005Z,84.38
2023-09-08T02:15:50.201Z,84.69
2023-09-08T02:20:52.427Z,84.51
2023-09-08T02:25:54.464Z,85.09
2023-09-08T02:30:56.530Z,85.57
2023-09-08T02:36:05.624Z,85.27
2023-09-08T02:41:07.690Z,85.12
2023-09-08T02:46:09.758Z,85.71
2023-09-08T02:51:11.816Z,86.15
2023-09-08T02:56:13.923Z,86.70
2023-09-08T03:01:17.076Z,86.53
2023-09-08T03:06:20.222Z,86.58
2023-09-08T03:11:22.225Z,86.87
2023-09-08T03:16:24.270Z,86.39
2023-09-08T03:21:26.485Z,86.55
2023-09-08T03:26:28.620Z,85.91
2023-09-08T03:31:30.812Z,86.71
2023-09-08T03:36:32.987Z,85.74
2023-09-08T03:41:35.104Z,84.95
2023-09-08T03:46:37.766Z,84.08
2023-09-08T03:51:39.961Z,83.44
2023-09-08T03:56:42.133Z,81.26
2023-09-08T04:01:44.140Z,77.88
2023-09-08T04:06:46.243Z,78.19
2023-09-08T04:11:48.381Z,77.48
2023-09-08T04:16:50.519Z,77.01
2023-09-08T04:21:52.576Z,75.88
2023-09-08T04:26:54.722Z,75.04
2023-09-08T04:31:56.827Z,74.06
2023-09-08T04:36:58.988Z,72.54
2023-09-08T04:42:01.230Z,72.51
2023-09-08T04:47:02.995Z,72.93
2023-09-08T04:52:05.357Z,73.74
2023-09-08T04:57:16.563Z,73.53
2023-09-08T05:02:24.398Z,72.85
2023-09-08T05:07:26.507Z,70.68
2023-09-08T05:12:28.494Z,70.30
2023-09-08T05:17:30.782Z,69.08
2023-09-08T05:22:32.814Z,69.24
2023-09-08T05:27:34.966Z,68.18
2023-09-08T05:32:37.243Z,68.34
2023-09-08T05:37:39.300Z,67.78
2023-09-08T05:42:43.052Z,67.71
2023-09-08T05:47:46.669Z,66.29
2023-09-08T05:52:48.753Z,66.38
2023-09-08T05:57:50.693Z,65.01
2023-09-08T06:02:52.727Z,62.92
2023-09-08T06:08:06.449Z,59.58
2023-09-08T06:13:09.292Z,57.91
2023-09-08T06:18:12.553Z,58.86
2023-09-08T06:23:15.319Z,49.93
2023-09-08T06:28:17.274Z,45.56
2023-09-08T06:33:19.391Z,51.64
2023-09-08T06:38:21.273Z,54.11
2023-09-08T06:43:23.137Z,56.98
2023-09-08T06:48:25.104Z,55.48
2023-09-08T06:53:27.165Z,51.61
2023-09-08T06:58:29.074Z,38.21
2023-09-08T07:03:31.082Z,28.40
2023-09-08T07:08:33.289Z,28.46
2023-09-08T07:13:35.503Z,30.47
2023-09-08T07:18:37.903Z,36.42
2023-09-08T07:23:40.202Z,37.50
2023-09-08T07:28:42.187Z,31.10
2023-09-08T07:33:44.228Z,26.64
2023-09-08T07:38:46.322Z,32.41
2023-09-08T07:43:49.827Z,37.10
2023-09-08T07:48:51.937Z,39.89
2023-09-08T07:53:57.022Z,41.12
2023-09-08T07:58:59.149Z,42.12
2023-09-08T08:04:01.231Z,42.10
2023-09-08T08:09:03.436Z,43.68
2023-09-08T08:14:05.740Z,44.38
2023-09-08T08:19:07.734Z,43.89
2023-09-08T08:24:09.765Z,44.64
2023-09-08T08:29:11.887Z,46.42
2023-09-08T08:34:13.588Z,46.65
2023-09-08T08:39:15.476Z,47.26
2023-09-08T08:44:17.968Z,48.61
2023-09-08T08:49:19.950Z,49.96
2023-09-08T08:54:21.902Z,51.63
2023-09-08T08:59:24.235Z,52.31
2023-09-08T09:04:26.633Z,52.10
2023-09-08T09:09:28.598Z,52.41
2023-09-08T09:14:34.335Z,52.90
2023-09-08T09:19:36.312Z,51.87
2023-09-08T09:24:41.852Z,51.57
2023-09-08T09:29:49.960Z,52.28
2023-09-08T09:34:53.440Z,52.95
2023-09-08T09:39:56.136Z,51.81
2023-09-08T09:44:58.096Z,53.74
2023-09-08T09:50:00.186Z,55.20
2023-09-08T09:55:02.194Z,57.04
2023-09-08T10:00:06.053Z,58.79
2023-09-08T10:05:14.664Z,60.56
2023-09-08T10:10:17.112Z,60.79
2023-09-08T10:15:21.093Z,61.50
2023-09-08T10:20:24.522Z,61.41
2023-09-08T10:25:26.560Z,60.63
2023-09-08T10:30:28.518Z,59.46
2023-09-08T10:35:30.524Z,58.67
2023-09-08T10:40:32.611Z,57.11
2023-09-08T10:45:34.576Z,55.95
2023-09-08T10:50:36.945Z,56.33
2023-09-08T10:55:41.648Z,56.91
2023-09-08T11:00:45.196Z,57.60
2023-09-08T11:05:47.670Z,59.15
2023-09-08T11:10:50.034Z,59.98
2023-09-08T11:15:55.832Z,61.42
2023-09-08T11:20:58.301Z,68.55
2023-09-08T11:26:00.732Z,70.42
2023-09-08T11:31:02.786Z,70.71
2023-09-08T11:36:12.652Z,70.99
2023-09-08T11:41:14.665Z,69.58
2023-09-08T11:46:16.869Z,67.36
2023-09-08T11:51:23.633Z,66.60
2023-09-08T11:56:26.237Z,65.27
2023-09-08T12:01:28.278Z,65.07
2023-09-08T12:06:30.583Z,64.25
2023-09-08T12:11:36.050Z,61.94
2023-09-08T12:16:38.181Z,62.84
2023-09-08T12:22:00.211Z,63.61
2023-09-08T12:27:04.511Z,64.87
2023-09-08T12:32:06.710Z,63.66
2023-09-08T12:37:08.518Z,63.38
2023-09-08T12:42:10.614Z,61.97
2023-09-08T12:47:12.829Z,61.95
2023-09-08T12:52:14.991Z,60.11
2023-09-08T12:57:16.975Z,60.38
2023-09-08T13:02:18.915Z,61.08
2023-09-08T13:07:21.382Z,60.85
2023-09-08T13:12:23.415Z,59.86
2023-09-08T13:17:25.456Z,59.20
2023-09-08T13:22:27.563Z,57.95
2023-09-08T13:27:29.543Z,56.89
2023-09-08T13:32:31.729Z,56.42
2023-09-08T13:37:33.873Z,55.52
2023-09-08T13:42:36.104Z,55.79
2023-09-08T13:47:38.416Z,55.23
2023-09-08T13:52:43.769Z,55.45
2023-09-08T13:57:48.786Z,56.42
2023-09-08T14:02:53.197Z,56.90
2023-09-08T14:08:06.934Z,57.51
2023-09-08T14:13:10.862Z,57.68
2023-09-08T14:18:13.210Z,57.02
2023-09-08T14:23:14.972Z,57.22
2023-09-08T14:28:16.818Z,57.62
2023-09-08T14:33:18.984Z,57.58
2023-09-08T14:38:21.633Z,57.09
2023-09-08T14:43:24.027Z,58.05
2023-09-08T14:48:26.089Z,58.49
2023-09-08T14:53:28.259Z,57.60
2023-09-08T14:58:30.780Z,56.96
2023-09-08T15:03:33.173Z,56.48
2023-09-08T15:08:35.358Z,56.75
2023-09-08T15:13:37.948Z,57.53
2023-09-08T15:18:40.287Z,57.57
2023-09-08T15:23:42.320Z,58.10
2023-09-08T15:28:44.534Z,58.86
2023-09-08T15:33:46.752Z,59.44
2023-09-08T15:38:49.032Z,60.27
2023-09-08T15:43:51.897Z,60.77
2023-09-08T15:48:54.046Z,61.97
2023-09-08T15:53:56.107Z,62.80
2023-09-08T15:58:59.085Z,63.94
2023-09-08T16:04:01.318Z,66.11
2023-09-08T16:09:05.895Z,65.52
2023-09-08T16:14:09.178Z,65.90
2023-09-08T16:19:11.165Z,66.51
2023-09-08T16:24:13.289Z,66.25
2023-09-08T16:29:15.292Z,66.47
2023-09-08T16:34:17.297Z,67.68
2023-09-08T16:39:19.516Z,67.53
2023-09-08T16:44:21.530Z,67.76
2023-09-08T16:49:23.523Z,68.06
2023-09-08T16:54:25.465Z,68.36
2023-09-08T16:59:27.480Z,68.87
2023-09-08T17:04:29.735Z,69.94
2023-09-08T17:09:31.944Z,72.19
2023-09-08T17:14:34.775Z,71.49
2023-09-08T17:19:36.840Z,72.42
2023-09-08T17:24:38.918Z,71.96
2023-09-08T17:29:40.908Z,73.02
2023-09-08T17:34:42.931Z,74.58
2023-09-08T17:39:44.961Z,75.43
2023-09-08T17:44:47.115Z,74.54
2023-09-08T17:49:49.343Z,75.98
2023-09-08T17:54:51.415Z,75.91
2023-09-08T17:59:53.489Z,76.10
2023-09-08T18:04:55.750Z,78.06
2023-09-08T18:09:57.864Z,78.33
2023-09-08T18:15:00.003Z,79.81
2023-09-08T18:20:02.074Z,80.05
2023-09-08T18:25:06.834Z,79.11
2023-09-08T18:30:09.420Z,78.90
2023-09-08T18:35:11.374Z,80.10
2023-09-08T18:40:13.874Z,79.12
2023-09-08T18:45:15.854Z,80.61
2023-09-08T18:50:17.989Z,80.32
2023-09-08T18:55:19.990Z,80.88
2023-09-08T19:00:22.006Z,81.65
2023-09-08T19:05:24.247Z,81.54
2023-09-08T19:10:26.389Z,81.44
2023-09-08T19:15:28.383Z,81.36
2023-09-08T19:20:30.709Z,81.26
2023-09-08T19:25:32.702Z,81.60
2023-09-08T19:30:34.593Z,80.96
2023-09-08T19:35:36.724Z,80.96
2023-09-08T19:40:38.696Z,81.52
2023-09-08T19:45:40.706Z,81.80
2023-09-08T19:50:45.082Z,81.79
2023-09-08T19:55:47.133Z,82.14
2023-09-08T20:00:49.617Z,82.44
2023-09-08T20:05:51.385Z,83.75
2023-09-08T20:10:53.833Z,82.77
2023-09-08T20:16:00.419Z,83.10
2023-09-08T20:21:02.876Z,83.83
2023-09-08T20:26:05.353Z,84.03
2023-09-08T20:31:16.229Z,84.90
2023-09-08T20:36:19.656Z,85.00
2023-09-08T20:41:21.813Z,86.03
2023-09-08T20:46:23.901Z,85.51
2023-09-08T20:51:25.947Z,85.84
2023-09-08T20:56:28.056Z,85.86
2023-09-08T21:01:30.154Z,85.68
2023-09-08T21:06:32.259Z,85.78
2023-09-08T21:11:34.378Z,85.66
2023-09-08T21:16:36.386Z,86.38
2023-09-08T21:21:38.497Z,86.57
2023-09-08T21:26:40.606Z,86.68
2023-09-08T21:31:42.580Z,87.64
2023-09-08T21:36:44.823Z,88.02
2023-09-08T21:41:46.894Z,87.58
2023-09-08T21:46:49.024Z,86.66
2023-09-08T21:51:51.113Z,87.83
2023-09-08T21:56:53.466Z,87.59
2023-09-08T22:01:55.759Z,87.56
2023-09-08T22:06:57.882Z,87.78
2023-09-08T22:11:59.988Z,87.83
2023-09-08T22:17:02.208Z,88.22
2023-09-08T22:22:04.502Z,88.31
2023-09-08T22:27:07.332Z,88.29
2023-09-08T22:32:09.363Z,88.41
2023-09-08T22:37:11.278Z,89.22
2023-09-08T22:42:13.427Z,89.40
2023-09-08T22:47:15.397Z,89.63
2023-09-08T22:52:17.510Z,89.70
2023-09-08T22:57:19.624Z,89.71
2023-09-08T23:02:21.808Z,90.37
2023-09-08T23:07:24.062Z,90.91
2023-09-08T23:12:26.078Z,91.44
2023-09-08T23:17:28.237Z,91.64
2023-09-08T23:22:30.330Z,92.72
2023-09-08T23:27:32.445Z,93.59
2023-09-08T23:32:34.603Z,93.83
2023-09-08T23:37:36.859Z,94.21
2023-09-08T23:42:39.604Z,94.59
2023-09-08T23:47:41.663Z,94.65
2023-09-08T23:52:43.709Z,94.58
2023-09-08T23:57:45.750Z,94.45
